createdAt,value
2022-10-22T00:01:06.804Z,45
2022-10-22T00:03:08.679Z,58
2022-10-22T00:05:10.433Z,50.8
2022-10-22T00:07:12.194Z,50.9
2022-10-22T00:09:17.530Z,44.3
2022-10-22T00:13:21.089Z,54
2022-10-22T00:15:22.863Z,49.9
2022-10-22T00:17:26.295Z,49.4
2022-10-22T00:19:28.092Z,68.1
2022-10-22T00:21:29.870Z,65.4
2022-10-22T00:23:35.141Z,53.2
2022-10-22T00:25:36.955Z,58.4
2022-10-22T00:27:39.122Z,48.7
2022-10-22T00:28:41.388Z,58.1
2022-10-22T00:30:43.112Z,67
2022-10-22T00:32:44.929Z,71.7
2022-10-22T00:36:51.956Z,67
2022-10-22T00:38:53.740Z,63.6
2022-10-22T00:40:55.589Z,63.3
2022-10-22T00:42:57.353Z,60.8
2022-10-22T00:44:59.201Z,67.1
2022-10-22T00:49:02.825Z,73
2022-10-22T00:51:08.323Z,101.1
2022-10-22T00:53:09.879Z,77
2022-10-22T00:55:11.653Z,114.3
2022-10-22T00:57:13.463Z,99.7
2022-10-22T00:59:15.243Z,70.5
2022-10-22T01:01:17.207Z,70.5
2022-10-22T01:03:18.874Z,83.2
2022-10-22T01:05:24.332Z,82.1
2022-10-22T01:07:26.191Z,76
2022-10-22T01:09:27.954Z,81.5
2022-10-22T01:11:29.790Z,75.1
2022-10-22T01:13:31.581Z,68.6
2022-10-22T01:15:33.399Z,93.2
2022-10-22T01:17:35.115Z,78.6
2022-10-22T01:19:40.399Z,79.2
2022-10-22T01:21:42.152Z,85
2022-10-22T01:26:01.931Z,78
2022-10-22T01:36:13.829Z,91.6
2022-10-22T01:38:15.584Z,88.4
2022-10-22T01:40:17.341Z,79.7
2022-10-22T01:42:19.221Z,88.2
2022-10-22T01:46:26.427Z,77.3
2022-10-22T01:48:28.294Z,97.5
2022-10-22T01:52:31.944Z,99.5
2022-10-22T01:54:33.772Z,116.9
2022-10-22T01:56:35.547Z,92.1
2022-10-22T01:58:37.302Z,87.8
2022-10-22T02:00:42.622Z,83.8
2022-10-22T02:02:44.372Z,101.7
2022-10-22T02:04:46.102Z,108.5
2022-10-22T02:06:47.857Z,98.8
2022-10-22T02:08:49.698Z,105.2
2022-10-22T02:10:51.406Z,104.6
2022-10-22T02:12:53.158Z,84.2
2022-10-22T02:14:58.463Z,99.5
2022-10-22T02:17:00.206Z,95.1
2022-10-22T02:19:02.003Z,96.1
2022-10-22T02:22:06.390Z,98.8
2022-10-22T02:24:08.142Z,107.4
2022-10-22T02:26:09.930Z,81.8
2022-10-22T02:28:15.210Z,95.4
2022-10-22T02:36:22.341Z,127
2022-10-22T02:38:24.118Z,104.6
2022-10-22T02:40:25.917Z,103.1
2022-10-22T02:42:31.184Z,108.5
2022-10-22T02:44:32.966Z,119
2022-10-22T02:46:34.726Z,96.5
2022-10-22T02:48:36.545Z,103.3
2022-10-22T02:54:41.857Z,108.7
2022-10-22T03:00:50.760Z,107.4
2022-10-22T03:02:52.490Z,104.3
2022-10-22T03:04:54.278Z,104.6
2022-10-22T03:06:56.065Z,110.1
2022-10-22T03:08:57.860Z,93.4
2022-10-22T03:11:03.081Z,112.6
2022-10-22T03:13:04.876Z,98.2
2022-10-22T03:15:06.630Z,133.5
2022-10-22T03:18:11.136Z,118.3
2022-10-22T03:20:13.006Z,148.6
2022-10-22T03:24:20.189Z,125.5
2022-10-22T03:26:22.060Z,145.4
2022-10-22T03:28:23.906Z,118.7
2022-10-22T03:32:27.611Z,164.2
2022-10-22T03:34:29.481Z,187.3
2022-10-22T03:36:31.370Z,147.1
2022-10-22T03:38:36.787Z,131.7
2022-10-22T03:40:38.633Z,126.5
2022-10-22T03:42:40.487Z,117.3
2022-10-22T03:44:42.263Z,121.8
2022-10-22T03:46:43.974Z,123.4
2022-10-22T03:48:45.747Z,137.5
2022-10-22T03:50:47.487Z,130.3
2022-10-22T03:54:54.492Z,145.1
2022-10-22T03:56:56.342Z,217
2022-10-22T04:03:02.936Z,142.5
2022-10-22T04:05:28.736Z,142.5
2022-10-22T04:09:11.188Z,155
2022-10-22T04:11:12.937Z,173.4
2022-10-22T04:14:17.323Z,344.4
2022-10-22T04:16:19.085Z,146
2022-10-22T04:22:27.784Z,160.2
2022-10-22T04:24:29.523Z,132.6
2022-10-22T04:26:31.293Z,145.9
2022-10-22T04:28:33.063Z,154
2022-10-22T04:30:35.081Z,171.4
2022-10-22T04:32:36.595Z,166.2
2022-10-22T04:34:41.863Z,141.5
2022-10-22T04:36:43.654Z,250
2022-10-22T04:38:45.425Z,204.9
2022-10-22T04:40:47.289Z,429.1
2022-10-22T04:46:52.564Z,138.1
2022-10-22T04:48:58.003Z,150.3
2022-10-22T04:50:59.769Z,158.2
2022-10-22T04:53:01.627Z,134.8
2022-10-22T04:55:03.476Z,141.8
2022-10-22T04:59:07.239Z,152.9
2022-10-22T05:01:09.141Z,132.1
2022-10-22T05:03:14.529Z,136.4
2022-10-22T05:05:16.392Z,173.6
2022-10-22T05:07:18.231Z,140.6
2022-10-22T05:11:37.827Z,118.3
2022-10-22T05:13:39.672Z,158.6
2022-10-22T05:15:45.028Z,157.4
2022-10-22T05:19:48.638Z,110.8
2022-10-22T05:21:50.509Z,121.3
2022-10-22T05:23:52.277Z,123.4
2022-10-22T05:27:57.261Z,116.3
2022-10-22T05:34:04.671Z,111.2
2022-10-22T05:42:11.759Z,98.4
2022-10-22T05:44:17.032Z,110.1
2022-10-22T05:50:22.350Z,92.6
2022-10-22T05:54:25.900Z,91.8
2022-10-22T05:56:27.673Z,99.1
2022-10-22T06:00:34.867Z,112.9
2022-10-22T06:02:36.718Z,76.7
2022-10-22T06:03:39.463Z,86
2022-10-22T06:07:46.337Z,85.5
2022-10-22T06:11:56.480Z,81.6
2022-10-22T06:16:24.993Z,67.5
2022-10-22T06:17:58.977Z,84.7
2022-10-22T06:20:00.825Z,79.9
2022-10-22T06:22:02.532Z,77
2022-10-22T06:24:04.370Z,82.6
2022-10-22T06:28:11.539Z,98.9
2022-10-22T06:30:13.195Z,70.3
2022-10-22T06:32:14.991Z,63.6
2022-10-22T06:34:16.741Z,47.5
2022-10-22T06:48:32.607Z,54.1
2022-10-22T06:50:34.391Z,57
2022-10-22T06:52:36.149Z,66.9
2022-10-22T06:54:41.439Z,59.7
2022-10-22T06:56:43.181Z,48.9
2022-10-22T06:58:44.981Z,55.6
2022-10-22T07:01:49.523Z,59.8
2022-10-22T07:03:51.245Z,32.1
2022-10-22T07:05:53.024Z,55.5
2022-10-22T07:07:58.341Z,66
2022-10-22T07:10:00.149Z,57.3
2022-10-22T07:12:01.960Z,68.8
2022-10-22T07:14:03.735Z,48.4
2022-10-22T07:16:05.543Z,37.5
2022-10-22T07:18:07.358Z,46.5
2022-10-22T07:20:09.180Z,67.3
2022-10-22T07:22:14.432Z,53.9
2022-10-22T07:24:16.249Z,61
2022-10-22T07:26:18.065Z,58.9
2022-10-22T07:28:19.877Z,58.5
2022-10-22T07:30:21.691Z,41.8
2022-10-22T07:32:23.986Z,47.7
2022-10-22T07:34:25.315Z,44.9
2022-10-22T07:36:30.624Z,31.1
2022-10-22T07:40:34.243Z,62
2022-10-22T07:42:36.032Z,41.5
2022-10-22T07:46:39.650Z,53.1
2022-10-22T07:48:41.443Z,40.5
2022-10-22T07:50:46.746Z,41
2022-10-22T07:52:48.555Z,45.2
2022-10-22T07:55:53.021Z,62.5
2022-10-22T07:57:54.798Z,40.3
2022-10-22T07:59:56.626Z,36.8
2022-10-22T08:01:58.552Z,31.6
2022-10-22T08:04:03.708Z,57.2
2022-10-22T08:06:05.526Z,42.9
2022-10-22T08:08:07.360Z,30.5
2022-10-22T08:10:09.193Z,40
2022-10-22T08:12:10.990Z,33.1
2022-10-22T08:14:12.787Z,35.9
2022-10-22T08:16:14.610Z,29.1
2022-10-22T08:18:19.900Z,30.6
2022-10-22T08:20:21.711Z,34.8
2022-10-22T08:22:23.550Z,39.6
2022-10-22T08:24:25.348Z,37.8
2022-10-22T08:26:27.162Z,45.6
2022-10-22T08:28:28.964Z,33.3
2022-10-22T08:32:36.063Z,34.5
2022-10-22T08:34:37.907Z,38.7
2022-10-22T08:36:39.681Z,35.2
2022-10-22T08:38:41.491Z,28.5
2022-10-22T08:40:43.357Z,30.3
2022-10-22T08:42:45.108Z,16.8
2022-10-22T08:44:46.916Z,23.9
2022-10-22T08:46:52.218Z,23.4
2022-10-22T08:48:54.127Z,29
2022-10-22T08:50:55.851Z,49.3
2022-10-22T08:55:20.893Z,24.3
2022-10-22T08:57:22.747Z,39.7
2022-10-22T08:59:27.993Z,29.9
2022-10-22T09:01:29.807Z,27
2022-10-22T09:03:31.648Z,30.1
2022-10-22T09:05:33.461Z,20.4
2022-10-22T09:07:35.277Z,35.9
2022-10-22T09:13:44.192Z,48.3
2022-10-22T09:15:47.297Z,34.7
2022-10-22T09:21:51.484Z,24.8
2022-10-22T09:30:02.324Z,21.7
2022-10-22T09:34:05.914Z,26.4
2022-10-22T09:40:11.365Z,29.8
2022-10-22T09:47:25.984Z,10.2
2022-10-22T09:49:24.811Z,14.7
2022-10-22T09:51:26.673Z,30.7
2022-10-22T09:53:28.446Z,13.5
2022-10-22T09:55:33.734Z,33.4
2022-10-22T09:57:35.602Z,22.8
2022-10-22T09:59:37.389Z,27.9
2022-10-22T10:01:39.209Z,18.7
2022-10-22T10:03:41.053Z,20.5
2022-10-22T10:05:42.873Z,14.4
2022-10-22T10:07:44.953Z,27.7
2022-10-22T10:11:51.824Z,19.2
2022-10-22T10:17:57.284Z,17.4
2022-10-22T10:24:06.304Z,21.2
2022-10-22T10:26:08.114Z,16
2022-10-22T10:28:09.983Z,6.4
2022-10-22T10:30:11.823Z,11.4
2022-10-22T10:32:13.662Z,18.5
2022-10-22T10:34:15.493Z,10.8
2022-10-22T10:38:24.775Z,14.7
2022-10-22T10:40:24.476Z,14.1
2022-10-22T10:42:26.277Z,20
2022-10-22T10:43:28.920Z,22.4
2022-10-22T10:45:30.809Z,10.1
2022-10-22T10:47:32.647Z,8.8
2022-10-22T10:49:34.458Z,20.8
2022-10-22T10:51:39.763Z,8.2
2022-10-22T10:53:41.600Z,5.3
2022-10-22T10:55:43.438Z,6.6
2022-10-22T10:57:45.245Z,6
2022-10-22T11:12:01.542Z,7.9
2022-10-22T11:14:03.309Z,6.9
2022-10-22T11:16:05.133Z,28.5
2022-10-22T11:18:06.964Z,8.1
2022-10-22T11:24:15.969Z,7.5
2022-10-22T11:26:17.794Z,6
2022-10-22T11:28:19.608Z,2.6
2022-10-22T11:30:21.503Z,8.7
2022-10-22T11:32:23.268Z,10.2
2022-10-22T11:34:33.838Z,6.5
2022-10-22T11:38:34.196Z,3.4
2022-10-22T11:39:34.872Z,7.4
2022-10-22T11:41:36.685Z,8.8
2022-10-22T11:43:38.477Z,5.1
2022-10-22T11:45:40.317Z,9.2
2022-10-22T11:47:45.670Z,10
2022-10-22T11:49:47.440Z,6.2
2022-10-22T11:51:49.266Z,3.9
2022-10-22T11:53:51.080Z,4.1
2022-10-22T11:55:52.889Z,4.6
2022-10-22T11:57:54.713Z,4.1
2022-10-22T11:59:56.550Z,2.4
2022-10-22T12:02:01.831Z,2.1
2022-10-22T12:04:05.324Z,4.8
2022-10-22T12:10:11.490Z,3.2
2022-10-22T12:12:12.494Z,6.7
2022-10-22T12:16:27.294Z,4.9
2022-10-22T12:18:21.436Z,19.4
2022-10-22T12:20:23.242Z,3.9
2022-10-22T12:22:25.048Z,2.9
2022-10-22T12:24:26.970Z,12
2022-10-22T12:26:28.686Z,2.9
2022-10-22T12:28:30.525Z,3.7
2022-10-22T12:32:37.601Z,4.9
2022-10-22T12:34:39.454Z,11.2
2022-10-22T12:39:02.378Z,7.8
2022-10-22T12:45:11.319Z,5.7
2022-10-22T12:47:13.132Z,5
2022-10-22T12:53:18.572Z,3.1
2022-10-22T12:55:20.383Z,4.6
2022-10-22T12:59:27.522Z,4.3
2022-10-22T13:01:29.339Z,7.6
2022-10-22T13:03:31.166Z,4.5
2022-10-22T13:05:32.975Z,3.1
2022-10-22T13:07:34.826Z,7.9
2022-10-22T13:11:41.955Z,2.5
2022-10-22T13:21:51.060Z,14.7
2022-10-22T13:23:53.152Z,3.9
2022-10-22T13:30:01.857Z,8.1
2022-10-22T13:31:04.518Z,7.4
2022-10-22T13:35:08.210Z,1.9
2022-10-22T13:37:09.983Z,7.7
2022-10-22T13:41:17.115Z,5.4
2022-10-22T13:47:22.566Z,4.3
2022-10-22T13:49:24.400Z,4.1
2022-10-22T13:51:26.221Z,3.9
2022-10-22T13:53:31.545Z,1.5
2022-10-22T13:55:33.354Z,14.1
2022-10-22T13:57:35.183Z,15.6
2022-10-22T13:59:37.004Z,3.2
2022-10-22T14:01:38.865Z,4.6
2022-10-22T14:05:42.484Z,9.6
2022-10-22T14:07:47.796Z,15.4
2022-10-22T14:09:49.592Z,16.4
2022-10-22T14:11:51.437Z,6.7
2022-10-22T14:15:55.088Z,8.4
2022-10-22T14:17:56.933Z,4.8
2022-10-22T14:19:58.866Z,6.8
2022-10-22T14:22:04.039Z,4.4
2022-10-22T14:24:08.243Z,22
2022-10-22T14:26:07.668Z,13
2022-10-22T14:29:12.227Z,3.9
2022-10-22T14:31:13.980Z,12.7
2022-10-22T14:33:15.808Z,13.2
2022-10-22T14:35:21.424Z,13.3
2022-10-22T14:37:23.082Z,15.8
2022-10-22T14:39:24.901Z,16.5
2022-10-22T14:41:26.716Z,6.1
2022-10-22T14:43:28.537Z,8.8
2022-10-22T14:45:30.363Z,8.6
2022-10-22T14:47:32.207Z,11.7
2022-10-22T14:51:39.318Z,2.9
2022-10-22T14:53:41.164Z,17.9
2022-10-22T14:55:42.966Z,9.4
2022-10-22T14:57:45.046Z,13.8
2022-10-22T14:59:46.623Z,9.8
2022-10-22T15:01:48.458Z,7.4
2022-10-22T15:05:55.608Z,8.3
2022-10-22T15:07:57.422Z,6.2
2022-10-22T15:14:02.906Z,9
2022-10-22T15:16:04.742Z,19.5
2022-10-22T15:18:10.057Z,9.7
2022-10-22T15:20:11.877Z,7.2
2022-10-22T15:22:13.729Z,6.4
2022-10-22T15:23:16.357Z,10.6
2022-10-22T15:25:18.185Z,10.2
2022-10-22T15:29:21.840Z,6.1
2022-10-22T15:31:27.162Z,9.9
2022-10-22T15:33:28.997Z,9.7
2022-10-22T15:35:30.837Z,17.2
2022-10-22T15:39:34.488Z,7.3
2022-10-22T15:41:36.319Z,10
2022-10-22T15:43:38.135Z,5.5
2022-10-22T15:45:43.456Z,9.7
2022-10-22T15:47:47.450Z,22.7
2022-10-22T15:49:47.106Z,19.3
2022-10-22T15:51:49.007Z,14.8
2022-10-22T15:53:50.805Z,6.1
2022-10-22T15:55:52.651Z,22.1
2022-10-22T15:57:54.482Z,13
2022-10-22T15:59:59.803Z,5.6
2022-10-22T16:02:01.701Z,11.7
2022-10-22T16:04:03.464Z,9.3
2022-10-22T16:06:05.283Z,20.1
2022-10-22T16:08:07.126Z,15.5
2022-10-22T16:10:08.947Z,20.9
2022-10-22T16:12:12.210Z,11.4
2022-10-22T16:14:16.065Z,17.7
2022-10-22T16:16:17.894Z,17.9
2022-10-22T16:18:19.691Z,9.9
2022-10-22T16:26:46.408Z,18.5
2022-10-22T16:30:52.859Z,16.7
2022-10-22T16:32:51.893Z,19.8
2022-10-22T16:34:53.688Z,13.3
2022-10-22T16:36:55.518Z,24.3
2022-10-22T16:38:57.350Z,13.8
2022-10-22T16:41:02.641Z,16.3
2022-10-22T16:43:04.454Z,16
2022-10-22T16:45:06.294Z,10.7
2022-10-22T16:47:08.079Z,11.8
2022-10-22T16:49:09.916Z,21.6
2022-10-22T16:51:11.727Z,35.8
2022-10-22T16:53:13.533Z,14
2022-10-22T16:55:18.852Z,13.6
2022-10-22T16:59:22.471Z,23.3
2022-10-22T17:01:24.317Z,24.5
2022-10-22T17:03:28.307Z,31.8
2022-10-22T17:05:27.889Z,55.1
2022-10-22T17:07:29.685Z,31.1
2022-10-22T17:09:34.980Z,22.4
2022-10-22T17:11:38.133Z,25.8
2022-10-22T17:13:38.580Z,21.2
2022-10-22T17:14:41.212Z,16.2
2022-10-22T17:16:43.050Z,24.4
2022-10-22T17:20:46.647Z,35.1
2022-10-22T17:28:57.399Z,46
2022-10-22T17:30:59.195Z,41.3
2022-10-22T17:35:02.813Z,32.1
2022-10-22T17:37:08.086Z,38
2022-10-22T17:39:09.890Z,50.5
2022-10-22T17:43:13.515Z,44.6
2022-10-22T17:47:17.116Z,19.3
2022-10-22T17:49:18.924Z,26.3
2022-10-22T17:51:24.219Z,40
2022-10-22T17:53:26.021Z,21.9
2022-10-22T18:10:48.177Z,40.3
2022-10-22T18:12:49.957Z,42.8
2022-10-22T18:14:51.768Z,22.4
2022-10-22T18:16:53.672Z,45
2022-10-22T18:18:58.821Z,42.2
2022-10-22T18:21:00.637Z,39.4
2022-10-22T18:23:02.406Z,33.9
2022-10-22T18:25:04.221Z,44.4
2022-10-22T18:27:06.145Z,34.3
2022-10-22T18:31:09.542Z,70.7
2022-10-22T18:37:18.353Z,70.1
2022-10-22T18:39:20.148Z,61.3
2022-10-22T18:41:21.911Z,71.7
2022-10-22T18:43:23.691Z,53.4
2022-10-22T18:49:32.484Z,50.7
2022-10-22T18:51:34.247Z,68
2022-10-22T18:57:39.882Z,85.6
2022-10-22T18:59:41.438Z,75.5
2022-10-22T19:05:50.278Z,83.8
2022-10-22T19:06:52.903Z,77.6
2022-10-22T19:08:54.731Z,55.5
2022-10-22T19:10:56.487Z,72.3
2022-10-22T19:12:58.422Z,68.1
2022-10-22T19:15:03.640Z,100.7
2022-10-22T19:17:05.511Z,86.5
2022-10-22T19:19:07.409Z,60.8
2022-10-22T19:21:09.297Z,77
2022-10-22T19:23:11.146Z,75.2
2022-10-22T19:25:13.015Z,72.4
2022-10-22T19:27:14.899Z,77.1
2022-10-22T19:29:20.270Z,59.9
2022-10-22T19:31:22.148Z,90.8
2022-10-22T19:33:24.040Z,97.7
2022-10-22T19:35:25.866Z,74.1
2022-10-22T19:37:27.622Z,73.9
2022-10-22T19:39:29.545Z,79.2
2022-10-22T19:41:31.373Z,74.4
2022-10-22T19:43:36.986Z,72.7
2022-10-22T19:45:38.467Z,75.6
2022-10-22T19:47:40.239Z,78.6
2022-10-22T19:49:41.993Z,70.4
2022-10-22T19:51:43.800Z,82.1
2022-10-22T19:55:47.375Z,86.4
2022-10-22T19:57:52.608Z,70.9
2022-10-22T19:59:54.375Z,81.1
2022-10-22T20:01:56.142Z,75.1
2022-10-22T20:04:19.932Z,73
2022-10-22T20:06:21.683Z,78.7
2022-10-22T20:08:23.510Z,56.1
2022-10-22T20:10:28.738Z,107.3
2022-10-22T20:12:30.493Z,77.4
2022-10-22T20:14:32.324Z,78.9
2022-10-22T20:16:34.043Z,92.6
2022-10-22T20:18:35.808Z,85.7
2022-10-22T20:20:37.578Z,69.7
2022-10-22T20:22:39.587Z,76.1
2022-10-22T20:26:46.448Z,79.3
2022-10-22T20:28:48.318Z,79.6
2022-10-22T20:30:50.064Z,74.6
2022-10-22T20:32:51.853Z,77.8
2022-10-22T20:36:55.393Z,90.5
2022-10-22T20:39:00.872Z,67
2022-10-22T20:41:02.739Z,85.2
2022-10-22T20:43:04.582Z,90.4
2022-10-22T20:45:06.433Z,84.9
2022-10-22T20:47:08.201Z,89.9
2022-10-22T20:49:09.978Z,77.6
2022-10-22T20:51:11.771Z,70.4
2022-10-22T20:53:17.044Z,84.8
2022-10-22T20:55:18.788Z,62.8
2022-10-22T20:57:20.540Z,82.2
2022-10-22T20:58:24.642Z,67
2022-10-22T21:00:25.053Z,100.3
2022-10-22T21:02:26.930Z,80.8
2022-10-22T21:04:28.863Z,67.6
2022-10-22T21:06:34.140Z,86.6
2022-10-22T21:08:36.044Z,73.8
2022-10-22T21:10:37.830Z,75.5
2022-10-22T21:14:41.558Z,68.1
2022-10-22T21:16:43.383Z,69.6
2022-10-22T21:18:45.276Z,91
2022-10-22T21:20:50.712Z,88.8
2022-10-22T21:22:52.571Z,87.9
2022-10-22T21:24:54.444Z,79.3
2022-10-22T21:26:56.293Z,76
2022-10-22T21:28:58.123Z,76.4
2022-10-22T21:31:00.006Z,83.7
2022-10-22T21:33:01.864Z,88.9
2022-10-22T21:35:07.311Z,99
2022-10-22T21:37:09.150Z,89
2022-10-22T21:39:11.009Z,90.4
2022-10-22T21:41:12.880Z,93.6
2022-10-22T21:43:14.701Z,96.1
2022-10-22T21:45:20.025Z,106.4
2022-10-22T21:47:18.416Z,103.6
2022-10-22T21:49:23.770Z,106.9
2022-10-22T21:51:25.536Z,95.1
2022-10-22T21:53:27.292Z,97.7
2022-10-22T21:54:30.002Z,96
2022-10-22T21:56:31.763Z,96.3
2022-10-22T21:58:33.522Z,132.9
2022-10-22T22:00:35.276Z,102.2
2022-10-22T22:04:42.393Z,112.3
2022-10-22T22:06:44.225Z,90.9
2022-10-22T22:08:46.170Z,100.2
2022-10-22T22:10:47.848Z,108.2
2022-10-22T22:12:49.709Z,96
2022-10-22T22:14:51.479Z,114.9
2022-10-22T22:16:56.912Z,114.2
2022-10-22T22:21:00.516Z,128.1
2022-10-22T22:25:04.367Z,107.9
2022-10-22T22:27:06.115Z,142.8
2022-10-22T22:31:13.215Z,115.8
2022-10-22T22:35:16.910Z,107.8
2022-10-22T22:37:18.799Z,94.4
2022-10-22T22:39:20.640Z,104.4
2022-10-22T22:41:22.513Z,113.4
2022-10-22T22:43:24.364Z,116.2
2022-10-22T22:45:29.799Z,104.1
2022-10-22T22:47:31.653Z,105.9
2022-10-22T22:49:33.490Z,106.3
2022-10-22T22:50:36.243Z,115.4
2022-10-22T22:52:37.995Z,90.5
2022-10-22T23:00:48.997Z,110.1
2022-10-22T23:02:50.854Z,113.8
2022-10-22T23:04:52.693Z,117.1
2022-10-22T23:06:54.579Z,102.9
2022-10-22T23:08:56.543Z,91.3
2022-10-22T23:15:05.299Z,101.1
2022-10-22T23:17:07.070Z,135.7
2022-10-22T23:19:08.843Z,107.1
2022-10-22T23:21:10.684Z,109.5
2022-10-22T23:23:12.411Z,120.5
2022-10-22T23:25:14.180Z,117.9
2022-10-22T23:27:19.451Z,118.6
2022-10-22T23:29:21.230Z,120.8
2022-10-22T23:31:23.006Z,128
2022-10-22T23:33:24.816Z,121.5
2022-10-22T23:35:26.567Z,128.8
2022-10-22T23:37:28.374Z,118.9
2022-10-22T23:39:30.175Z,137.3
2022-10-22T23:41:35.427Z,134
2022-10-22T23:43:37.204Z,144.2
2022-10-22T23:45:38.976Z,123
2022-10-22T23:48:01.999Z,135.5
2022-10-22T23:50:03.860Z,152.3
2022-10-22T23:52:05.532Z,136.6
2022-10-22T23:54:10.791Z,118.9
2022-10-22T23:56:12.594Z,127.4
